createdAt,value
2022-12-20T00:01:28.015Z,103069.00
2022-12-20T00:03:56.789Z,103085.91
2022-12-20T00:06:24.618Z,103072.44
2022-12-20T00:08:59.737Z,103082.56
2022-12-20T00:11:28.026Z,103079.88
2022-12-20T00:13:54.949Z,103080.63
2022-12-20T00:16:24.856Z,103081.06
2022-12-20T00:18:53.881Z,103079.88
2022-12-20T00:21:20.773Z,103069.63
2022-12-20T00:23:47.749Z,103082.44
2022-12-20T00:26:17.217Z,103075.75
2022-12-20T00:28:45.572Z,103077.06
2022-12-20T00:31:15.970Z,103073.53
2022-12-20T00:33:46.869Z,103081.09
2022-12-20T00:36:14.133Z,103088.78
2022-12-20T00:38:41.303Z,103083.16
2022-12-20T00:41:11.085Z,103081.47
2022-12-20T00:43:39.318Z,103069.47
2022-12-20T00:46:07.952Z,103053.56
2022-12-20T00:48:35.484Z,103060.97
2022-12-20T00:51:11.460Z,103060.50
2022-12-20T00:53:39.724Z,103050.59
2022-12-20T00:56:07.646Z,103044.75
2022-12-20T00:58:37.147Z,103051.06
2022-12-20T01:01:06.331Z,103045.16
2022-12-20T01:03:33.591Z,103045.88
2022-12-20T01:06:02.127Z,103031.38
2022-12-20T01:08:30.981Z,103033.72
2022-12-20T01:11:01.776Z,103028.41
2022-12-20T01:13:30.121Z,103025.91
2022-12-20T01:15:57.602Z,103021.13
2022-12-20T01:18:24.496Z,103020.25
2022-12-20T01:21:01.500Z,103022.88
2022-12-20T01:23:28.558Z,103021.19
2022-12-20T01:25:58.345Z,103016.69
2022-12-20T01:28:25.335Z,103023.50
2022-12-20T01:30:52.482Z,103022.25
2022-12-20T01:33:19.531Z,103019.00
2022-12-20T01:36:13.727Z,103018.91
2022-12-20T01:38:40.597Z,103007.69
2022-12-20T01:41:07.525Z,103007.09
2022-12-20T01:43:49.982Z,102998.06
2022-12-20T01:46:17.809Z,102993.56
2022-12-20T01:49:10.946Z,102991.16
2022-12-20T01:51:44.792Z,102992.47
2022-12-20T01:54:19.127Z,102988.94
2022-12-20T01:56:54.139Z,102981.69
2022-12-20T01:59:21.201Z,102978.06
2022-12-20T02:01:48.291Z,102979.84
2022-12-20T02:04:15.267Z,102980.59
2022-12-20T02:06:43.554Z,102973.06
2022-12-20T02:09:10.671Z,102972.81
2022-12-20T02:11:53.421Z,102956.19
2022-12-20T02:14:43.461Z,102960.88
2022-12-20T02:17:22.589Z,102972.56
2022-12-20T02:20:33.239Z,102958.00
2022-12-20T02:23:00.092Z,102942.03
2022-12-20T02:25:57.969Z,102951.38
2022-12-20T02:28:33.829Z,102946.25
2022-12-20T02:31:05.409Z,102938.31
2022-12-20T02:33:32.449Z,102945.50
2022-12-20T02:35:59.874Z,102953.09
2022-12-20T02:38:34.928Z,102954.72
2022-12-20T02:41:08.294Z,102937.28
2022-12-20T02:43:58.239Z,102955.94
2022-12-20T02:46:27.592Z,102955.44
2022-12-20T02:48:58.403Z,102946.19
2022-12-20T02:51:28.756Z,102950.09
2022-12-20T02:53:57.482Z,102940.28
2022-12-20T02:56:36.624Z,102937.13
2022-12-20T02:59:11.581Z,102924.63
2022-12-20T03:02:01.180Z,102927.50
2022-12-20T03:04:31.121Z,102929.72
2022-12-20T03:06:58.059Z,102938.16
2022-12-20T03:09:25.157Z,102934.22
2022-12-20T03:11:53.541Z,102921.03
2022-12-20T03:14:20.612Z,102927.13
2022-12-20T03:16:49.582Z,102919.44
2022-12-20T03:19:16.826Z,102925.97
2022-12-20T03:21:43.835Z,102912.06
2022-12-20T03:24:16.374Z,102923.53
2022-12-20T03:26:43.856Z,102924.31
2022-12-20T03:29:11.008Z,102923.75
2022-12-20T03:31:39.042Z,102919.94
2022-12-20T03:34:06.623Z,102916.94
2022-12-20T03:36:35.013Z,102932.63
2022-12-20T03:39:05.110Z,102922.31
2022-12-20T03:41:36.244Z,102935.00
2022-12-20T03:44:06.931Z,102943.50
2022-12-20T03:46:34.191Z,102920.22
2022-12-20T03:49:01.169Z,102924.34
2022-12-20T03:51:29.507Z,102929.66
2022-12-20T03:53:57.129Z,102924.03
2022-12-20T03:56:34.903Z,102918.72
2022-12-20T03:59:04.428Z,102920.94
2022-12-20T04:01:31.703Z,102918.00
2022-12-20T04:03:59.369Z,102920.91
2022-12-20T04:06:27.440Z,102932.91
2022-12-20T04:08:54.639Z,102936.88
2022-12-20T04:11:27.785Z,102933.94
2022-12-20T04:14:21.017Z,102917.75
2022-12-20T04:16:49.334Z,102920.53
2022-12-20T04:19:16.824Z,102920.16
2022-12-20T04:21:46.902Z,102918.25
2022-12-20T04:24:15.753Z,102931.34
2022-12-20T04:27:00.846Z,102926.03
2022-12-20T04:29:28.173Z,102919.53
2022-12-20T04:31:55.427Z,102922.66
2022-12-20T04:34:22.974Z,102920.53
2022-12-20T04:36:50.046Z,102915.59
2022-12-20T04:39:25.783Z,102931.09
2022-12-20T04:42:16.300Z,102930.53
2022-12-20T04:44:43.879Z,102928.41
2022-12-20T04:47:11.588Z,102944.09
2022-12-20T04:49:38.614Z,102927.44
2022-12-20T04:52:24.506Z,102942.59
2022-12-20T04:54:51.441Z,102927.63
2022-12-20T04:57:24.225Z,102916.34
2022-12-20T04:59:52.085Z,102915.16
2022-12-20T05:02:19.447Z,102932.34
2022-12-20T05:04:53.221Z,102927.72
2022-12-20T05:07:20.354Z,102923.50
2022-12-20T05:09:51.452Z,102914.91
2022-12-20T05:12:18.303Z,102919.06
2022-12-20T05:14:45.664Z,102913.06
2022-12-20T05:17:15.638Z,102911.94
2022-12-20T05:19:42.520Z,102903.34
2022-12-20T05:22:29.910Z,102924.56
2022-12-20T05:25:30.775Z,102926.13
2022-12-20T05:28:01.678Z,102922.81
2022-12-20T05:30:33.108Z,102931.34
2022-12-20T05:33:00.196Z,102938.53
2022-12-20T05:35:28.006Z,102929.50
2022-12-20T05:38:02.924Z,102929.19
2022-12-20T05:40:31.008Z,102922.91
2022-12-20T05:42:58.846Z,102922.25
2022-12-20T05:45:35.561Z,102918.91
2022-12-20T05:48:07.841Z,102919.75
2022-12-20T05:50:38.473Z,102933.72
2022-12-20T05:53:24.357Z,102932.66
2022-12-20T05:55:54.724Z,102920.13
2022-12-20T05:58:26.748Z,102923.81
2022-12-20T06:01:01.081Z,102915.63
2022-12-20T06:03:28.667Z,102929.44
2022-12-20T06:05:56.144Z,102934.72
2022-12-20T06:08:27.490Z,102938.94
2022-12-20T06:10:56.191Z,102943.13
2022-12-20T06:13:24.277Z,102931.34
2022-12-20T06:15:53.940Z,102935.72
2022-12-20T06:18:22.046Z,102934.44
2022-12-20T06:20:53.774Z,102930.31
2022-12-20T06:23:23.485Z,102929.16
2022-12-20T06:26:04.929Z,102931.97
2022-12-20T06:28:35.578Z,102931.81
2022-12-20T06:31:02.815Z,102938.91
2022-12-20T06:33:40.515Z,102935.28
2022-12-20T06:36:07.813Z,102937.09
2022-12-20T06:38:35.854Z,102936.75
2022-12-20T06:41:03.491Z,102934.22
2022-12-20T06:43:31.321Z,102939.47
2022-12-20T06:45:58.299Z,102938.69
2022-12-20T06:48:25.488Z,102943.38
2022-12-20T06:50:56.094Z,102937.41
2022-12-20T06:53:24.858Z,102929.34
2022-12-20T06:55:51.811Z,102931.09
2022-12-20T06:58:21.514Z,102929.72
2022-12-20T07:00:49.421Z,102938.22
2022-12-20T07:03:16.830Z,102935.25
2022-12-20T07:05:43.824Z,102934.13
2022-12-20T07:08:10.791Z,102937.03
2022-12-20T07:10:38.274Z,102933.72
2022-12-20T07:13:05.364Z,102927.38
2022-12-20T07:15:32.612Z,102919.56
2022-12-20T07:17:59.706Z,102919.34
2022-12-20T07:20:26.676Z,102917.47
2022-12-20T07:22:53.738Z,102931.66
2022-12-20T07:25:21.016Z,102907.56
2022-12-20T07:27:50.060Z,102899.00
2022-12-20T07:30:18.337Z,102892.91
2022-12-20T07:32:45.500Z,102888.81
2022-12-20T07:35:13.662Z,102879.88
2022-12-20T07:37:41.177Z,102873.00
2022-12-20T07:40:09.724Z,102870.84
2022-12-20T07:42:39.045Z,102869.41
2022-12-20T07:45:07.834Z,102876.59
2022-12-20T07:47:35.998Z,102867.78
2022-12-20T07:50:03.787Z,102873.75
2022-12-20T07:52:34.627Z,102864.25
2022-12-20T07:55:04.088Z,102868.16
2022-12-20T07:57:57.562Z,102862.78
2022-12-20T08:00:24.954Z,102862.22
2022-12-20T08:03:02.984Z,102861.88
2022-12-20T08:05:30.886Z,102864.06
2022-12-20T08:08:00.272Z,102853.59
2022-12-20T08:10:28.269Z,102848.38
2022-12-20T08:12:55.727Z,102850.91
2022-12-20T08:15:23.265Z,102862.03
2022-12-20T08:17:50.888Z,102859.03
2022-12-20T08:20:17.912Z,102849.69
2022-12-20T08:22:45.328Z,102841.63
2022-12-20T08:25:12.507Z,102851.53
2022-12-20T08:27:39.496Z,102849.34
2022-12-20T08:30:08.560Z,102857.19
2022-12-20T08:32:36.412Z,102855.97
2022-12-20T08:35:04.441Z,102852.22
2022-12-20T08:37:31.442Z,102854.94
2022-12-20T08:39:58.504Z,102848.22
2022-12-20T08:42:25.440Z,102836.88
2022-12-20T08:44:52.271Z,102831.53
2022-12-20T08:47:19.168Z,102839.63
2022-12-20T08:49:48.061Z,102822.38
2022-12-20T08:52:15.392Z,102823.78
2022-12-20T08:54:42.341Z,102816.94
2022-12-20T08:57:09.260Z,102808.56
2022-12-20T08:59:36.187Z,102790.53
2022-12-20T09:02:03.209Z,102788.97
2022-12-20T09:04:30.490Z,102790.50
2022-12-20T09:06:57.391Z,102788.03
2022-12-20T09:09:24.316Z,102779.13
2022-12-20T09:11:51.198Z,102773.72
2022-12-20T09:14:18.617Z,102765.22
2022-12-20T09:16:45.499Z,102761.16
2022-12-20T09:19:14.392Z,102774.16
2022-12-20T09:21:41.615Z,102767.03
2022-12-20T09:24:09.868Z,102756.34
2022-12-20T09:26:37.111Z,102769.88
2022-12-20T09:29:05.318Z,102762.94
2022-12-20T09:31:32.275Z,102753.84
2022-12-20T09:33:59.975Z,102751.78
2022-12-20T09:36:29.446Z,102744.22
2022-12-20T09:38:57.477Z,102747.94
2022-12-20T09:41:33.429Z,102739.72
2022-12-20T09:44:05.596Z,102739.75
2022-12-20T09:46:33.502Z,102728.66
2022-12-20T09:49:00.704Z,102732.59
2022-12-20T09:52:08.709Z,102721.72
2022-12-20T09:54:50.042Z,102722.69
2022-12-20T09:57:44.597Z,102719.38
2022-12-20T10:00:21.122Z,102710.13
2022-12-20T10:03:04.237Z,102709.25
2022-12-20T10:05:51.817Z,102705.13
2022-12-20T10:08:43.192Z,102701.31
2022-12-20T10:11:29.584Z,102694.00
2022-12-20T10:14:08.840Z,102693.50
2022-12-20T10:16:53.904Z,102695.44
2022-12-20T10:19:26.764Z,102696.44
2022-12-20T10:22:14.494Z,102695.78
2022-12-20T10:24:48.240Z,102685.38
2022-12-20T10:27:19.933Z,102681.97
2022-12-20T10:29:49.698Z,102672.81
2022-12-20T10:32:20.509Z,102682.47
2022-12-20T10:34:56.757Z,102670.38
2022-12-20T10:37:23.674Z,102663.31
2022-12-20T10:39:52.190Z,102656.22
2022-12-20T10:42:36.292Z,102644.69
2022-12-20T10:45:03.840Z,102650.69
2022-12-20T10:47:44.496Z,102640.03
2022-12-20T10:50:23.015Z,102634.00
2022-12-20T10:53:08.166Z,102630.50
2022-12-20T10:55:36.969Z,102624.84
2022-12-20T10:58:07.259Z,102626.84
2022-12-20T11:00:34.465Z,102617.28
2022-12-20T11:03:22.273Z,102612.78
2022-12-20T11:05:59.792Z,102609.16
2022-12-20T11:08:45.019Z,102600.06
2022-12-20T11:11:24.829Z,102604.34
2022-12-20T11:13:52.836Z,102600.22
2022-12-20T11:16:40.478Z,102607.50
2022-12-20T11:19:21.266Z,102601.66
2022-12-20T11:22:05.041Z,102599.88
2022-12-20T11:24:44.306Z,102592.25
2022-12-20T11:27:28.904Z,102578.81
2022-12-20T11:30:09.882Z,102568.44
2022-12-20T11:32:53.874Z,102576.34
2022-12-20T11:35:58.549Z,102570.16
2022-12-20T11:38:32.788Z,102563.84
2022-12-20T11:41:38.361Z,102560.72
2022-12-20T11:44:48.696Z,102555.94
2022-12-20T11:47:49.170Z,102552.25
2022-12-20T11:50:27.882Z,102550.06
2022-12-20T11:53:00.355Z,102556.53
2022-12-20T11:55:32.223Z,102542.97
2022-12-20T11:58:20.883Z,102536.41
2022-12-20T12:00:56.371Z,102532.16
2022-12-20T12:03:36.933Z,102523.59
2022-12-20T12:06:16.393Z,102531.81
2022-12-20T12:09:05.295Z,102513.06
2022-12-20T12:14:29.967Z,102515.00
2022-12-20T12:17:03.952Z,102522.84
2022-12-20T12:19:32.130Z,102517.31
2022-12-20T12:22:10.215Z,102522.44
2022-12-20T12:24:43.861Z,102515.28
2022-12-20T12:27:28.218Z,102528.22
2022-12-20T12:29:58.788Z,102515.75
2022-12-20T12:32:38.250Z,102515.03
2022-12-20T12:35:36.237Z,102522.41
2022-12-20T12:38:24.385Z,102525.13
2022-12-20T12:41:15.814Z,102519.88
2022-12-20T12:43:53.585Z,102516.75
2022-12-20T12:46:29.110Z,102521.56
2022-12-20T12:49:01.949Z,102523.09
2022-12-20T12:51:33.147Z,102513.28
2022-12-20T12:54:10.345Z,102513.84
2022-12-20T12:56:51.346Z,102509.72
2022-12-20T12:59:24.344Z,102505.84
2022-12-20T13:01:54.099Z,102510.09
2022-12-20T13:04:21.175Z,102515.38
2022-12-20T13:06:48.075Z,102516.16
2022-12-20T13:09:25.481Z,102511.53
2022-12-20T13:12:01.123Z,102509.63
2022-12-20T13:14:30.232Z,102509.31
2022-12-20T13:17:12.353Z,102509.22
2022-12-20T13:19:51.107Z,102518.03
2022-12-20T13:22:18.046Z,102510.34
2022-12-20T13:24:53.405Z,102499.31
2022-12-20T13:27:39.508Z,102502.44
2022-12-20T13:30:12.332Z,102505.69
2022-12-20T13:32:48.464Z,102506.09
2022-12-20T13:35:28.217Z,102504.94
2022-12-20T13:38:26.101Z,102508.06
2022-12-20T13:41:00.710Z,102493.19
2022-12-20T13:43:41.361Z,102491.91
2022-12-20T13:46:11.410Z,102498.97
2022-12-20T13:48:38.412Z,102489.13
2022-12-20T13:51:10.742Z,102490.06
2022-12-20T13:53:39.394Z,102483.91
2022-12-20T13:56:33.689Z,102491.44
2022-12-20T13:59:07.546Z,102478.22
2022-12-20T14:01:36.359Z,102481.44
2022-12-20T14:04:07.487Z,102467.72
2022-12-20T14:06:35.352Z,102458.84
2022-12-20T14:09:03.751Z,102467.78
2022-12-20T14:11:30.741Z,102463.22
2022-12-20T14:13:57.644Z,102461.44
2022-12-20T14:16:27.066Z,102461.09
2022-12-20T14:18:57.144Z,102445.25
2022-12-20T14:21:25.750Z,102446.53
2022-12-20T14:23:57.618Z,102454.41
2022-12-20T14:26:28.641Z,102438.56
2022-12-20T14:28:58.285Z,102436.81
2022-12-20T14:31:44.469Z,102451.47
2022-12-20T14:34:11.298Z,102434.59
2022-12-20T14:36:40.259Z,102431.22
2022-12-20T14:39:29.798Z,102421.31
2022-12-20T14:42:01.819Z,102428.19
2022-12-20T14:44:32.445Z,102421.81
2022-12-20T14:47:04.163Z,102418.00
2022-12-20T14:49:34.538Z,102428.53
2022-12-20T14:52:34.561Z,102423.09
2022-12-20T14:55:28.754Z,102426.09
2022-12-20T14:57:58.074Z,102424.66
2022-12-20T15:00:31.629Z,102418.44
2022-12-20T15:03:12.946Z,102416.59
2022-12-20T15:05:45.544Z,102413.84
2022-12-20T15:08:14.756Z,102412.25
2022-12-20T15:11:03.605Z,102418.53
2022-12-20T15:13:37.427Z,102412.22
2022-12-20T15:16:14.049Z,102409.63
2022-12-20T15:18:41.068Z,102413.84
2022-12-20T15:21:29.368Z,102399.63
2022-12-20T15:23:59.768Z,102399.69
2022-12-20T15:26:28.534Z,102395.88
2022-12-20T15:28:55.896Z,102387.53
2022-12-20T15:31:32.454Z,102398.09
2022-12-20T15:34:02.524Z,102399.34
2022-12-20T15:36:30.179Z,102394.38
2022-12-20T15:39:14.760Z,102399.66
2022-12-20T15:41:47.410Z,102410.88
2022-12-20T15:44:25.390Z,102401.56
2022-12-20T15:46:52.980Z,102403.84
2022-12-20T15:49:23.763Z,102405.16
2022-12-20T15:51:52.538Z,102403.09
2022-12-20T15:54:32.972Z,102395.03
2022-12-20T15:57:07.691Z,102392.13
2022-12-20T16:02:23.569Z,102388.38
2022-12-20T16:04:51.426Z,102383.16
2022-12-20T16:07:18.696Z,102387.97
2022-12-20T16:09:45.802Z,102384.19
2022-12-20T16:12:29.678Z,102394.56
2022-12-20T16:14:57.392Z,102388.88
2022-12-20T16:17:24.459Z,102389.88
2022-12-20T16:19:51.415Z,102386.69
2022-12-20T16:22:22.336Z,102388.47
2022-12-20T16:24:49.868Z,102395.50
2022-12-20T16:27:17.010Z,102398.03
2022-12-20T16:29:43.875Z,102382.25
2022-12-20T16:32:19.793Z,102390.00
2022-12-20T16:34:47.439Z,102389.03
2022-12-20T16:37:14.431Z,102393.44
2022-12-20T16:39:42.164Z,102384.16
2022-12-20T16:42:17.325Z,102390.28
2022-12-20T16:44:45.673Z,102392.38
2022-12-20T16:47:14.365Z,102383.91
2022-12-20T16:49:51.202Z,102390.00
2022-12-20T16:52:19.988Z,102385.81
2022-12-20T16:54:46.987Z,102378.69
2022-12-20T16:57:13.967Z,102386.59
2022-12-20T16:59:40.869Z,102380.56
2022-12-20T17:02:27.739Z,102386.84
2022-12-20T17:04:54.949Z,102388.13
2022-12-20T17:07:22.333Z,102381.81
2022-12-20T17:09:49.310Z,102386.50
2022-12-20T17:12:18.302Z,102377.91
2022-12-20T17:14:46.358Z,102381.91
2022-12-20T17:17:13.641Z,102380.41
2022-12-20T17:19:40.584Z,102379.53
2022-12-20T17:22:23.143Z,102388.34
2022-12-20T17:24:50.088Z,102378.25
2022-12-20T17:27:16.986Z,102375.84
2022-12-20T17:29:44.067Z,102369.91
2022-12-20T17:32:22.124Z,102367.03
2022-12-20T17:34:49.640Z,102368.88
2022-12-20T17:37:18.263Z,102363.34
2022-12-20T17:39:45.507Z,102356.41
2022-12-20T17:42:16.804Z,102356.78
2022-12-20T17:44:44.181Z,102357.03
2022-12-20T17:47:11.887Z,102357.22
2022-12-20T17:49:39.303Z,102348.16
2022-12-20T17:52:06.300Z,102357.16
2022-12-20T17:54:39.534Z,102345.78
2022-12-20T17:57:14.599Z,102338.88
2022-12-20T17:59:42.626Z,102343.63
2022-12-20T18:02:27.843Z,102335.06
2022-12-20T18:04:55.085Z,102337.34
2022-12-20T18:07:22.065Z,102343.56
2022-12-20T18:09:49.396Z,102338.75
2022-12-20T18:12:17.256Z,102331.88
2022-12-20T18:14:44.926Z,102332.28
2022-12-20T18:17:11.976Z,102327.28
2022-12-20T18:19:39.657Z,102322.69
2022-12-20T18:22:06.659Z,102338.56
2022-12-20T18:24:33.699Z,102334.94
2022-12-20T18:27:00.651Z,102335.72
2022-12-20T18:29:28.583Z,102329.28
2022-12-20T18:31:55.486Z,102329.00
2022-12-20T18:34:22.586Z,102335.56
2022-12-20T18:36:49.420Z,102329.16
2022-12-20T18:39:16.497Z,102330.16
2022-12-20T18:41:44.340Z,102326.84
2022-12-20T18:44:12.019Z,102326.28
2022-12-20T18:46:39.266Z,102326.13
2022-12-20T18:49:06.510Z,102327.19
2022-12-20T18:51:38.658Z,102321.75
2022-12-20T18:54:08.106Z,102318.81
2022-12-20T18:56:37.802Z,102319.16
2022-12-20T18:59:14.197Z,102310.88
2022-12-20T19:01:43.286Z,102326.13
2022-12-20T19:04:11.464Z,102319.28
2022-12-20T19:06:38.979Z,102309.22
2022-12-20T19:09:09.903Z,102304.94
2022-12-20T19:11:37.807Z,102303.28
2022-12-20T19:14:05.080Z,102297.44
2022-12-20T19:16:33.231Z,102288.25
2022-12-20T19:19:04.385Z,102288.03
2022-12-20T19:21:35.848Z,102287.69
2022-12-20T19:24:06.989Z,102285.75
2022-12-20T19:26:36.508Z,102277.78
2022-12-20T19:29:04.732Z,102273.81
2022-12-20T19:31:34.469Z,102267.56
2022-12-20T19:34:04.696Z,102267.06
2022-12-20T19:36:38.535Z,102267.66
2022-12-20T19:39:08.063Z,102257.56
2022-12-20T19:41:35.720Z,102256.25
2022-12-20T19:44:03.825Z,102253.25
2022-12-20T19:46:30.884Z,102251.31
2022-12-20T19:48:59.542Z,102249.03
2022-12-20T19:51:27.976Z,102255.13
2022-12-20T19:53:56.413Z,102250.84
2022-12-20T19:56:26.351Z,102253.69
2022-12-20T19:58:54.054Z,102247.63
2022-12-20T20:01:25.685Z,102244.88
2022-12-20T20:03:59.332Z,102243.78
2022-12-20T20:06:27.491Z,102238.94
2022-12-20T20:08:57.808Z,102229.66
2022-12-20T20:11:25.291Z,102224.34
2022-12-20T20:13:52.185Z,102219.97
2022-12-20T20:16:22.571Z,102220.91
2022-12-20T20:18:50.672Z,102214.53
2022-12-20T20:21:22.041Z,102212.97
2022-12-20T20:23:53.962Z,102214.28
2022-12-20T20:26:24.989Z,102219.81
2022-12-20T20:28:52.966Z,102226.66
2022-12-20T20:31:21.559Z,102211.91
2022-12-20T20:33:49.321Z,102219.47
2022-12-20T20:36:19.778Z,102214.56
2022-12-20T20:38:46.891Z,102219.06
2022-12-20T20:41:14.461Z,102215.16
2022-12-20T20:43:41.944Z,102213.41
2022-12-20T20:46:11.665Z,102211.06
2022-12-20T20:48:39.543Z,102204.63
2022-12-20T20:51:07.185Z,102210.09
2022-12-20T20:53:34.741Z,102208.56
2022-12-20T20:56:06.389Z,102202.66
2022-12-20T20:58:34.415Z,102200.66
2022-12-20T21:01:03.501Z,102198.13
2022-12-20T21:03:32.165Z,102187.75
2022-12-20T21:08:46.083Z,102182.41
2022-12-20T21:11:13.290Z,102181.66
2022-12-20T21:13:40.445Z,102178.75
2022-12-20T21:16:13.664Z,102175.31
2022-12-20T21:18:40.634Z,102164.69
2022-12-20T21:21:12.704Z,102160.22
2022-12-20T21:23:43.706Z,102162.47
2022-12-20T21:26:10.693Z,102153.84
2022-12-20T21:28:37.671Z,102153.13
2022-12-20T21:31:09.151Z,102148.59
2022-12-20T21:33:36.468Z,102151.75
2022-12-20T21:36:15.501Z,102149.00
2022-12-20T21:38:42.983Z,102147.84
2022-12-20T21:41:13.293Z,102142.00
2022-12-20T21:43:40.370Z,102142.69
2022-12-20T21:46:11.463Z,102141.44
2022-12-20T21:48:40.219Z,102146.25
2022-12-20T21:51:14.030Z,102142.06
2022-12-20T21:53:50.128Z,102149.06
2022-12-20T21:56:18.697Z,102139.00
2022-12-20T21:58:46.074Z,102136.78
2022-12-20T22:01:15.928Z,102139.38
2022-12-20T22:03:45.514Z,102125.25
2022-12-20T22:06:12.661Z,102124.09
2022-12-20T22:08:39.805Z,102121.78
2022-12-20T22:11:12.242Z,102112.94
2022-12-20T22:13:41.978Z,102111.81
2022-12-20T22:16:23.362Z,102107.28
2022-12-20T22:18:52.305Z,102103.56
2022-12-20T22:21:21.998Z,102105.03
2022-12-20T22:23:50.271Z,102111.19
2022-12-20T22:26:20.123Z,102107.03
2022-12-20T22:29:04.939Z,102106.28
2022-12-20T22:31:32.630Z,102109.41
2022-12-20T22:34:00.100Z,102102.38
2022-12-20T22:36:27.495Z,102104.50
2022-12-20T22:38:56.711Z,102090.34
2022-12-20T22:41:29.080Z,102073.81
2022-12-20T22:43:58.277Z,102070.56
2022-12-20T22:46:25.726Z,102068.00
2022-12-20T22:48:52.716Z,102064.25
2022-12-20T22:51:21.882Z,102070.13
2022-12-20T22:53:49.519Z,102055.81
2022-12-20T22:56:19.585Z,102062.47
2022-12-20T22:58:46.861Z,102059.81
2022-12-20T23:01:15.855Z,102058.25
2022-12-20T23:03:43.305Z,102052.44
2022-12-20T23:06:13.689Z,102052.09
2022-12-20T23:08:41.307Z,102047.22
2022-12-20T23:11:36.810Z,102044.03
2022-12-20T23:14:23.578Z,102035.03
2022-12-20T23:16:51.324Z,102039.50
2022-12-20T23:19:18.400Z,102032.41
2022-12-20T23:22:03.663Z,102021.72
2022-12-20T23:24:30.541Z,102017.34
2022-12-20T23:26:57.809Z,102012.28
2022-12-20T23:29:24.740Z,102010.31
2022-12-20T23:31:51.737Z,102006.63
2022-12-20T23:34:18.765Z,101999.41
2022-12-20T23:36:45.891Z,101996.03
2022-12-20T23:39:12.939Z,101991.28
2022-12-20T23:41:40.655Z,101989.38
2022-12-20T23:44:07.640Z,101989.06
2022-12-20T23:46:34.840Z,101989.69
2022-12-20T23:49:01.884Z,101986.06
2022-12-20T23:51:28.915Z,101985.75
2022-12-20T23:53:55.816Z,101992.34
2022-12-20T23:56:23.596Z,101979.41
2022-12-20T23:58:53.700Z,101987.53
